Time;durP1;ratioP1;P1;durP2;ratioP2;P2;SDS_P1;SDS_P2;PMS_P1;PMS_P2;Temp;Humidity;BMP_temperature;BMP_pressure;BME280_temperature;BME280_humidity;BME280_pressure;Samples;Min_cycle;Max_cycle;Signal;HPM_P1;HPM_P2
2023/09/23 00:01:58;;;;;;;3.97;1.70;;;;;;;15.26;78.76;100678.34;5042332;28;20637;-66
2023/09/23 00:04:29;;;;;;;6.30;1.67;;;;;;;15.07;77.50;100678.84;5030846;28;20315;-68
2023/09/23 00:07:00;;;;;;;8.97;2.03;;;;;;;14.98;79.38;100679.13;5025205;28;20279;-67
2023/09/23 00:09:33;;;;;;;8.87;1.80;;;;;;;14.92;80.44;100684.53;5019506;28;20302;-66
2023/09/23 00:12:03;;;;;;;6.20;1.77;;;;;;;14.82;80.88;100690.97;5025135;28;20276;-66
2023/09/23 00:14:34;;;;;;;8.70;2.27;;;;;;;14.79;82.28;100698.94;5015457;28;20648;-66
2023/09/23 00:17:06;;;;;;;7.40;2.70;;;;;;;14.70;83.59;100694.78;5024543;28;20303;-61
2023/09/23 00:19:36;;;;;;;9.00;3.37;;;;;;;14.70;86.12;100705.31;5024749;28;20963;-69
2023/09/23 00:22:07;;;;;;;10.37;3.00;;;;;;;14.64;86.71;100711.59;5014621;28;20290;-66
2023/09/23 00:24:39;;;;;;;6.20;2.40;;;;;;;14.45;88.47;100700.66;5037317;28;20278;-62
2023/09/23 00:27:09;;;;;;;7.43;2.00;;;;;;;14.33;90.24;100710.63;5036964;28;20275;-60
2023/09/23 00:29:40;;;;;;;7.10;2.67;;;;;;;14.17;92.17;100705.72;5049237;28;20583;-67
2023/09/23 00:32:12;;;;;;;6.73;2.47;;;;;;;14.08;92.10;100694.56;5038389;28;20351;-68
2023/09/23 00:34:43;;;;;;;4.77;1.87;;;;;;;14.06;93.11;100694.63;5048084;28;20737;-68
2023/09/23 00:37:13;;;;;;;5.53;1.57;;;;;;;14.10;95.01;100693.63;5037842;28;20589;-60
2023/09/23 00:39:45;;;;;;;5.60;1.57;;;;;;;14.14;96.09;100684.78;5048072;28;20274;-62
2023/09/23 00:42:17;;;;;;;4.07;1.47;;;;;;;14.24;97.14;100675.78;5038207;28;20357;-63
2023/09/23 00:44:48;;;;;;;5.60;1.63;;;;;;;14.30;96.91;100668.63;5048164;28;20789;-66
2023/09/23 00:47:19;;;;;;;7.27;2.10;;;;;;;14.32;94.40;100672.09;5038151;28;20866;-66
2023/09/23 00:49:50;;;;;;;6.20;1.80;;;;;;;14.26;92.61;100677.50;5035087;28;20357;-67
2023/09/23 00:52:22;;;;;;;6.83;1.63;;;;;;;14.04;92.34;100630.72;5022574;28;20299;-62
2023/09/23 00:54:55;;;;;;;3.67;1.47;;;;;;;14.36;91.31;100673.75;5034882;28;20283;-67
2023/09/23 00:57:26;;;;;;;4.93;1.30;;;;;;;14.40;90.35;100680.63;5024503;28;20391;-67
2023/09/23 00:59:57;;;;;;;5.67;1.70;;;;;;;14.50;90.55;100682.13;5035737;28;20305;-70
2023/09/23 01:02:28;;;;;;;4.67;1.70;;;;;;;14.59;90.91;100676.66;5023526;28;20344;-65
2023/09/23 01:04:59;;;;;;;2.77;1.50;;;;;;;14.58;88.59;100685.47;5034558;28;20295;-63
2023/09/23 01:07:31;;;;;;;6.10;1.50;;;;;;;14.70;87.82;100675.50;5022352;28;20274;-65
2023/09/23 01:10:04;;;;;;;3.30;1.37;;;;;;;15.07;89.36;100673.59;5033806;28;20723;-70
2023/09/23 01:12:35;;;;;;;3.43;1.57;;;;;;;15.02;88.43;100664.97;5023092;28;20302;-60
2023/09/23 01:15:17;;;;;;;7.07;1.83;;;;;;;14.87;85.41;100665.41;5025653;28;20282;-63
2023/09/23 01:17:50;;;;;;;4.63;2.00;;;;;;;15.01;85.27;100672.91;5034004;28;20287;-68
2023/09/23 01:20:21;;;;;;;3.63;1.90;;;;;;;15.12;84.09;100641.88;5024497;28;20290;-69
2023/09/23 01:22:59;;;;;;;2.93;1.17;;;;;;;15.50;80.77;100667.09;5035255;28;20497;-68
2023/09/23 01:25:30;;;;;;;2.83;1.70;;;;;;;15.71;79.32;100660.31;5022644;28;20289;-69
2023/09/23 01:28:03;;;;;;;5.27;1.40;;;;;;;15.74;76.68;100659.34;5034225;28;20313;-64
2023/09/23 01:30:35;;;;;;;2.60;1.20;;;;;;;15.98;77.86;100667.41;5023134;28;20281;-69
2023/09/23 01:33:08;;;;;;;3.00;1.30;;;;;;;16.21;77.93;100664.88;5026900;28;20315;-67
2023/09/23 01:35:39;;;;;;;3.97;1.10;;;;;;;16.10;76.59;100622.16;5032743;28;20289;-63
2023/09/23 01:38:11;;;;;;;4.47;1.30;;;;;;;16.32;72.92;100652.19;5021762;28;20773;-67
2023/09/23 01:40:43;;;;;;;3.97;1.30;;;;;;;16.42;72.77;100646.59;5033329;28;20331;-69
2023/09/23 01:43:13;;;;;;;3.10;1.13;;;;;;;16.51;74.00;100646.28;5024382;28;20865;-66
2023/09/23 01:45:44;;;;;;;5.50;1.60;;;;;;;16.76;74.23;100647.13;5032670;28;20318;-67
2023/09/23 01:48:15;;;;;;;4.17;1.00;;;;;;;16.73;73.22;100636.69;5023528;28;20292;-65
2023/09/23 01:50:45;;;;;;;6.03;1.90;;;;;;;16.92;74.44;100636.03;5035349;28;20294;-64
2023/09/23 01:53:24;;;;;;;4.80;1.50;;;;;;;17.21;73.22;100643.75;5023734;28;20610;-65
2023/09/23 01:55:54;;;;;;;7.43;2.50;;;;;;;17.25;71.76;100626.88;5033769;28;21269;-70
2023/09/23 01:58:25;;;;;;;3.53;1.80;;;;;;;17.37;71.89;100627.31;5023363;28;20058;-67
2023/09/23 02:00:56;;;;;;;5.33;1.40;;;;;;;17.17;70.69;100636.88;5034090;28;20441;-64
2023/09/23 02:03:27;;;;;;;6.60;1.80;;;;;;;17.03;70.71;100633.88;5023747;28;20287;-64
2023/09/23 02:05:58;;;;;;;6.03;2.80;;;;;;;16.85;71.27;100634.53;5032363;28;20292;-64
2023/09/23 02:08:30;;;;;;;7.37;2.23;;;;;;;16.66;71.51;100629.91;5022678;28;20678;-63
2023/09/23 02:11:02;;;;;;;6.37;1.40;;;;;;;16.48;70.58;100630.56;5032999;28;20383;-65
2023/09/23 02:13:40;;;;;;;2.57;1.00;;;;;;;16.32;70.85;100625.81;5021729;28;20358;-69
2023/09/23 02:16:11;;;;;;;3.38;1.55;;;;;;;16.27;71.56;100619.81;5023192;28;20863;-68
2023/09/23 02:18:41;;;;;;;3.77;1.23;;;;;;;16.38;71.23;100624.75;5033040;28;20037;-64
2023/09/23 02:21:12;;;;;;;5.30;1.13;;;;;;;16.76;71.39;100620.75;5022109;28;20290;-65
2023/09/23 02:23:45;;;;;;;4.17;2.47;;;;;;;17.17;71.88;100620.16;5033569;28;20287;-68
2023/09/23 02:26:16;;;;;;;2.57;1.03;;;;;;;17.43;67.22;100612.09;5022684;28;20283;-68
2023/09/23 02:28:47;;;;;;;3.97;1.17;;;;;;;17.52;63.69;100610.84;5032073;28;20267;-68
2023/09/23 02:31:19;;;;;;;4.00;1.37;;;;;;;17.49;60.92;100600.41;5021102;28;20766;-68
2023/09/23 02:33:49;;;;;;;3.07;1.30;;;;;;;17.83;65.02;100604.38;5032506;28;20294;-63
2023/09/23 02:36:20;;;;;;;3.70;1.40;;;;;;;18.03;63.15;100612.34;5030824;28;20631;-68
2023/09/23 02:38:52;;;;;;;5.00;1.60;;;;;;;18.26;62.02;100597.28;5054374;28;20275;-68
2023/09/23 02:41:23;;;;;;;2.70;1.00;;;;;;;18.49;59.40;100597.16;5073844;28;20282;-70
2023/09/23 02:43:53;;;;;;;2.33;1.30;;;;;;;18.57;53.20;100607.41;5074513;28;20278;-64
2023/09/23 02:46:24;;;;;;;2.87;1.10;;;;;;;18.47;52.94;100596.38;5056324;28;20293;-64
2023/09/23 02:48:55;;;;;;;8.33;4.23;;;;;;;18.41;47.96;100607.22;5031522;28;20287;-63
2023/09/23 02:51:26;;;;;;;6.07;2.30;;;;;;;18.46;49.62;100599.06;5036510;28;20314;-67
2023/09/23 02:53:58;;;;;;;4.57;0.93;;;;;;;18.20;49.26;100594.94;5049111;28;20698;-66
2023/09/23 02:56:30;;;;;;;3.30;0.90;;;;;;;17.78;50.58;100595.75;5034204;28;20298;-67
2023/09/23 02:59:00;;;;;;;2.20;1.40;;;;;;;17.59;53.14;100593.84;5066370;28;20279;-65
2023/09/23 03:01:31;;;;;;;3.47;1.10;;;;;;;17.68;53.75;100596.13;5033452;28;20342;-67
2023/09/23 03:04:16;;;;;;;2.83;0.80;;;;;;;17.95;54.25;100588.03;5044185;28;20279;-67
2023/09/23 03:06:49;;;;;;;4.20;1.03;;;;;;;18.23;53.46;100589.50;5051841;28;20321;-64
2023/09/23 03:09:23;;;;;;;4.53;1.60;;;;;;;18.33;51.05;100580.22;5039042;28;20575;-66
2023/09/23 03:11:55;;;;;;;5.47;2.60;;;;;;;18.41;44.85;100586.03;5049103;28;20290;-65
2023/09/23 03:14:30;;;;;;;6.60;2.90;;;;;;;18.29;46.34;100586.56;5027873;28;20358;-66
2023/09/23 03:17:01;;;;;;;11.50;2.20;;;;;;;18.27;46.77;100588.41;5031461;28;20282;-62
2023/09/23 03:19:33;;;;;;;2.60;1.30;;;;;;;18.25;45.76;100591.16;5021422;28;20615;-65
2023/09/23 03:22:04;;;;;;;4.90;1.57;;;;;;;18.32;46.51;100586.44;5030986;28;20281;-63
2023/09/23 03:24:36;;;;;;;5.43;1.37;;;;;;;18.19;42.21;100595.84;5022264;28;20279;-63
2023/09/23 03:27:07;;;;;;;4.10;1.43;;;;;;;17.73;43.86;100571.31;5021792;28;21169;-62
2023/09/23 03:29:39;;;;;;;7.70;3.57;;;;;;;17.71;45.87;100578.44;5033168;28;20299;-66
2023/09/23 03:32:09;;;;;;;6.63;3.13;;;;;;;17.89;46.26;100577.69;5019313;28;20295;-64
2023/09/23 03:34:41;;;;;;;4.37;1.50;;;;;;;18.01;46.04;100561.31;5030975;28;20365;-66
2023/09/23 03:37:12;;;;;;;4.20;1.63;;;;;;;18.32;46.44;100581.13;5020920;28;20379;-65
2023/09/23 03:39:44;;;;;;;6.03;1.27;;;;;;;18.45;45.49;100577.06;5031865;28;20383;-65
2023/09/23 03:42:15;;;;;;;3.93;1.00;;;;;;;18.43;46.00;100578.06;5018818;28;20371;-64
2023/09/23 03:44:45;;;;;;;3.07;0.80;;;;;;;18.42;44.00;100579.84;5032063;28;20790;-62
2023/09/23 03:47:16;;;;;;;16.97;5.27;;;;;;;18.29;45.59;100581.28;5020519;28;20278;-63
2023/09/23 03:49:47;;;;;;;18.10;11.33;;;;;;;18.39;45.54;100585.25;5031432;28;20270;-64
2023/09/23 03:52:17;;;;;;;6.47;3.23;;;;;;;18.32;44.46;100586.44;5021064;28;20307;-60
2023/09/23 03:54:52;;;;;;;4.93;3.43;;;;;;;17.99;45.17;100584.31;5030338;28;20783;-63
2023/09/23 03:57:23;;;;;;;6.00;1.83;;;;;;;17.72;46.49;100566.91;5021269;28;20423;-64
2023/09/23 03:59:53;;;;;;;3.23;1.27;;;;;;;17.88;46.86;100574.19;5030497;28;20283;-61
2023/09/23 04:02:25;;;;;;;2.17;1.10;;;;;;;17.91;46.12;100554.69;5021570;28;20284;-63
2023/09/23 04:04:55;;;;;;;2.97;1.13;;;;;;;18.15;46.23;100576.59;5030605;28;20289;-62
2023/09/23 04:07:26;;;;;;;3.03;1.33;;;;;;;18.09;44.99;100580.34;5021360;28;20284;-63
2023/09/23 04:09:58;;;;;;;4.17;1.13;;;;;;;18.10;45.26;100582.09;5030653;28;20323;-62
2023/09/23 04:12:29;;;;;;;7.90;2.40;;;;;;;18.27;46.66;100561.97;5021929;28;20570;-60
2023/09/23 04:15:00;;;;;;;1.77;1.03;;;;;;;18.50;47.33;100569.78;5030927;28;20350;-61
2023/09/23 04:17:30;;;;;;;3.70;0.80;;;;;;;18.56;47.49;100570.44;5021469;28;20758;-62
2023/09/23 04:20:09;;;;;;;4.83;1.13;;;;;;;18.65;46.31;100573.53;5031001;28;20291;-63
2023/09/23 04:22:41;;;;;;;6.22;1.00;;;;;;;18.79;46.61;100578.22;5020304;28;20279;-62
2023/09/23 04:25:14;;;;;;;7.93;2.90;;;;;;;18.65;43.25;100575.31;5021849;28;20055;-61
2023/09/23 04:27:44;;;;;;;6.57;3.20;;;;;;;18.35;43.16;100564.31;5030843;28;20287;-62
2023/09/23 04:30:15;;;;;;;10.77;1.80;;;;;;;18.30;41.58;100567.16;5020657;28;20779;-61
2023/09/23 04:32:46;;;;;;;3.80;2.10;;;;;;;18.06;43.41;100575.19;5031056;28;20327;-66
2023/09/23 04:35:17;;;;;;;7.37;2.27;;;;;;;17.88;42.97;100575.97;5020717;28;20371;-65
2023/09/23 04:37:48;;;;;;;4.27;1.30;;;;;;;17.82;41.33;100578.84;5030868;28;20348;-60
2023/09/23 04:40:21;;;;;;;2.03;1.00;;;;;;;17.74;42.30;100579.16;5019369;28;20286;-60
2023/09/23 04:42:52;;;;;;;8.90;3.90;;;;;;;17.73;43.60;100581.88;5030876;28;20295;-64
2023/09/23 04:45:23;;;;;;;11.13;3.87;;;;;;;17.82;45.82;100568.28;5020506;28;20351;-62
2023/09/23 04:47:54;;;;;;;6.90;2.60;;;;;;;18.00;45.45;100580.75;5030611;28;20287;-60
2023/09/23 04:50:28;;;;;;;7.23;2.70;;;;;;;18.06;44.17;100582.28;5019818;28;20288;-60
2023/09/23 04:52:59;;;;;;;10.83;3.17;;;;;;;18.10;43.96;100582.09;5029879;28;20369;-61
2023/09/23 04:55:32;;;;;;;6.10;2.50;;;;;;;17.94;42.50;100586.28;5020558;28;20279;-62
2023/09/23 04:58:03;;;;;;;7.33;1.30;;;;;;;17.88;42.13;100591.84;5031035;28;20344;-63
2023/09/23 05:00:36;;;;;;;5.33;1.30;;;;;;;17.84;41.74;100590.25;5020266;28;20661;-63
2023/09/23 05:03:12;;;;;;;4.57;2.60;;;;;;;17.75;42.96;100580.88;5020733;28;23737;-64
2023/09/23 05:05:57;;;;;;;6.65;3.28;;;;;;;17.92;43.60;100597.84;5030760;28;20398;-65
2023/09/23 05:08:46;;;;;;;11.20;1.77;;;;;;;17.98;43.66;100598.47;5022372;28;20056;-62
2023/09/23 05:11:24;;;;;;;2.30;1.23;;;;;;;18.08;45.23;100599.78;5024132;28;20290;-63
2023/09/23 05:13:56;;;;;;;6.30;1.90;;;;;;;18.15;44.41;100599.56;5033903;28;20306;-62
2023/09/23 05:16:28;;;;;;;5.57;2.00;;;;;;;18.09;45.03;100601.50;5025455;28;20282;-67
2023/09/23 05:19:01;;;;;;;5.63;3.20;;;;;;;18.19;46.02;100595.84;5033972;28;20290;-65
2023/09/23 05:21:40;;;;;;;2.57;1.20;;;;;;;18.10;44.96;100597.94;5024478;28;20286;-61
2023/09/23 05:24:14;;;;;;;2.70;1.20;;;;;;;18.11;45.65;100609.38;5022874;28;20344;-65
2023/09/23 05:26:49;;;;;;;2.83;1.03;;;;;;;18.07;44.34;100602.50;5033515;28;20287;-63
2023/09/23 05:29:29;;;;;;;3.03;1.20;;;;;;;17.99;45.88;100605.47;5023951;28;20709;-64
2023/09/23 05:32:06;;;;;;;1.43;1.10;;;;;;;17.78;44.95;100601.03;5033425;28;20784;-65
2023/09/23 05:34:46;;;;;;;5.00;1.00;;;;;;;17.80;46.10;100610.66;5024001;28;20378;-63
2023/09/23 05:37:26;;;;;;;2.03;1.00;;;;;;;17.82;46.31;100607.94;5023033;28;20291;-62
2023/09/23 05:40:23;;;;;;;11.57;5.10;;;;;;;17.69;45.23;100608.41;5033570;28;20295;-61
2023/09/23 05:42:59;;;;;;;7.90;3.30;;;;;;;17.72;46.30;100609.22;5034323;28;20283;-65
2023/09/23 05:45:40;;;;;;;9.00;2.57;;;;;;;17.68;43.75;100606.69;5021983;28;20614;-60
2023/09/23 05:48:20;;;;;;;8.27;3.87;;;;;;;17.71;48.04;100610.13;5023142;28;20306;-62
2023/09/23 05:51:05;;;;;;;10.67;6.53;;;;;;;17.74;46.33;100615.28;5033588;28;20302;-66
2023/09/23 05:53:37;;;;;;;20.93;16.47;;;;;;;17.77;48.06;100609.88;5023765;28;20279;-64
2023/09/23 05:56:09;;;;;;;3.20;1.20;;;;;;;17.79;47.28;100618.63;5022584;28;20978;-63
2023/09/23 05:58:42;;;;;;;2.67;1.77;;;;;;;17.68;47.24;100617.25;5033001;28;20290;-61
2023/09/23 06:01:20;;;;;;;5.00;1.37;;;;;;;17.62;47.34;100611.34;5021921;28;20293;-65
2023/09/23 06:03:56;;;;;;;3.03;1.20;;;;;;;17.53;46.08;100620.53;5032525;28;20758;-61
2023/09/23 06:06:28;;;;;;;4.63;1.90;;;;;;;17.51;47.31;100624.16;5023112;28;20363;-63
2023/09/23 06:09:00;;;;;;;12.27;8.13;;;;;;;17.51;47.68;100619.72;5033680;28;20289;-64
2023/09/23 06:11:31;;;;;;;3.80;2.20;;;;;;;17.51;47.47;100619.72;5023039;28;20743;-66
2023/09/23 06:14:05;;;;;;;25.03;19.33;;;;;;;17.31;44.86;100617.00;5033760;28;20279;-65
2023/09/23 06:16:37;;;;;;;22.43;15.83;;;;;;;17.18;46.51;100627.19;5023206;28;20291;-65
2023/09/23 06:19:09;;;;;;;12.27;4.40;;;;;;;17.18;46.61;100628.03;5022007;28;20318;-64
2023/09/23 06:21:41;;;;;;;6.77;1.47;;;;;;;17.10;45.34;100634.50;5031796;28;20308;-64
2023/09/23 06:24:13;;;;;;;4.07;1.57;;;;;;;16.95;45.53;100625.41;5023693;28;20275;-63
2023/09/23 06:26:45;;;;;;;15.67;9.03;;;;;;;16.87;46.58;100638.00;5033650;28;20610;-60
2023/09/23 06:29:18;;;;;;;11.67;5.73;;;;;;;16.84;47.56;100638.97;5022268;28;20414;-66
2023/09/23 06:31:50;;;;;;;12.60;5.20;;;;;;;16.89;48.52;100636.16;5032257;28;20298;-66
2023/09/23 06:34:25;;;;;;;7.83;3.07;;;;;;;16.80;47.66;100627.69;5022014;28;20392;-66
2023/09/23 06:36:57;;;;;;;4.27;1.60;;;;;;;16.80;48.98;100637.38;5031428;28;20707;-59
2023/09/23 06:39:29;;;;;;;8.17;2.00;;;;;;;16.72;46.92;100640.22;5021149;28;20266;-60
2023/09/23 06:42:01;;;;;;;5.77;2.80;;;;;;;16.55;47.36;100647.91;5031957;28;20295;-67
2023/09/23 06:44:35;;;;;;;4.97;2.53;;;;;;;16.49;48.39;100648.09;5022432;28;20807;-64
2023/09/23 06:47:07;;;;;;;5.07;3.67;;;;;;;16.49;48.88;100653.38;5022240;28;20282;-63
2023/09/23 06:49:39;;;;;;;3.93;1.90;;;;;;;16.46;49.39;100653.50;5031475;28;20298;-67
2023/09/23 06:52:11;;;;;;;7.47;2.70;;;;;;;16.41;49.80;100650.16;5021490;28;20359;-66
2023/09/23 06:54:43;;;;;;;3.00;2.30;;;;;;;16.39;49.24;100658.97;5031995;28;20303;-67
2023/09/23 06:57:14;;;;;;;3.33;2.10;;;;;;;16.36;49.74;100663.50;5021712;28;20326;-66
2023/09/23 06:59:49;;;;;;;3.97;1.67;;;;;;;16.30;50.10;100656.66;5032935;28;20298;-63
2023/09/23 07:02:28;;;;;;;3.83;1.70;;;;;;;16.23;51.12;100663.06;5021330;28;20310;-63
2023/09/23 07:05:18;;;;;;;1.60;1.00;;;;;;;16.12;52.20;100654.63;5022109;28;20282;-67
2023/09/23 07:08:03;;;;;;;4.90;2.00;;;;;;;16.06;53.09;100662.75;5032039;28;20287;-67
2023/09/23 07:10:46;;;;;;;3.70;3.17;;;;;;;16.02;52.98;100663.75;5021869;28;20762;-70
2023/09/23 07:13:19;;;;;;;4.88;3.05;;;;;;;15.94;53.00;100661.38;5021776;28;20605;-64
2023/09/23 07:16:09;;;;;;;9.20;3.13;;;;;;;15.88;53.63;100672.13;5031601;28;20055;-63
2023/09/23 07:18:54;;;;;;;3.07;1.67;;;;;;;15.83;54.16;100664.34;5031566;28;20287;-65
2023/09/23 07:21:32;;;;;;;6.57;2.47;;;;;;;15.79;54.36;100667.13;5021585;28;20983;-63
2023/09/23 07:24:07;;;;;;;7.67;2.13;;;;;;;15.75;55.65;100671.63;5031847;28;20703;-64
2023/09/23 07:26:49;;;;;;;4.37;2.33;;;;;;;15.69;56.22;100674.41;5021469;28;20306;-67
2023/09/23 07:29:40;;;;;;;4.00;2.30;;;;;;;15.57;56.39;100677.41;5021542;28;20943;-67
2023/09/23 07:32:22;;;;;;;4.60;2.13;;;;;;;15.40;56.71;100665.66;5020720;28;20311;-63
2023/09/23 07:34:54;;;;;;;8.53;4.37;;;;;;;15.37;56.89;100681.50;5030564;28;20307;-67
2023/09/23 07:37:33;;;;;;;6.13;3.90;;;;;;;15.31;56.81;100681.69;5021207;28;20369;-65
2023/09/23 07:40:20;;;;;;;3.30;2.60;;;;;;;15.17;56.60;100684.72;5020160;28;20291;-63
2023/09/23 07:43:03;;;;;;;6.53;2.60;;;;;;;15.02;56.54;100679.91;5032247;28;20291;-66
2023/09/23 07:45:48;;;;;;;6.43;3.37;;;;;;;14.91;57.51;100679.34;5020599;28;20283;-66
2023/09/23 07:48:32;;;;;;;4.88;1.73;;;;;;;14.78;58.64;100692.84;5021322;28;20323;-68
2023/09/23 07:51:08;;;;;;;4.47;1.87;;;;;;;14.70;59.38;100693.94;5020964;28;20120;-66
2023/09/23 07:53:47;;;;;;;6.33;2.40;;;;;;;14.58;59.88;100696.00;5031475;28;20290;-68
2023/09/23 07:56:20;;;;;;;4.70;1.80;;;;;;;14.50;60.65;100692.63;5021028;28;20287;-68
2023/09/23 07:58:52;;;;;;;5.27;2.17;;;;;;;14.37;61.17;100692.09;5031349;28;20390;-68
2023/09/23 08:01:24;;;;;;;8.20;2.20;;;;;;;14.30;62.28;100711.53;5021532;28;20299;-68
2023/09/23 08:03:58;;;;;;;6.83;2.80;;;;;;;14.17;63.04;100695.22;5031834;28;20746;-69
2023/09/23 08:06:30;;;;;;;9.70;3.73;;;;;;;14.18;64.11;100715.34;5021364;28;20291;-63
2023/09/23 08:09:02;;;;;;;10.27;3.60;;;;;;;14.13;65.21;100714.59;5031340;28;20303;-65
2023/09/23 08:11:33;;;;;;;8.63;3.07;;;;;;;14.01;66.21;100721.00;5022431;28;20362;-68
2023/09/23 08:14:12;;;;;;;9.47;3.83;;;;;;;13.89;66.84;100725.69;5031105;28;20286;-64
2023/09/23 08:16:54;;;;;;;10.90;4.17;;;;;;;13.79;67.87;100725.03;5030821;28;20291;-63
2023/09/23 08:19:38;;;;;;;9.93;4.13;;;;;;;13.67;67.82;100731.41;5020692;28;20291;-64
2023/09/23 08:22:13;;;;;;;8.07;3.07;;;;;;;13.54;68.27;100732.56;5018874;28;20298;-65
2023/09/23 08:24:44;;;;;;;17.10;3.03;;;;;;;13.40;68.75;100747.72;5030975;28;20366;-67
2023/09/23 08:27:14;;;;;;;9.50;2.57;;;;;;;13.21;69.22;100742.81;5020102;28;21152;-66
2023/09/23 08:29:45;;;;;;;5.47;2.50;;;;;;;13.11;70.00;100751.78;5031751;28;20305;-68
2023/09/23 08:32:17;;;;;;;11.77;2.72;;;;;;;13.07;70.73;100755.34;5025250;28;20326;-68
2023/09/23 08:34:50;;;;;;;11.30;4.07;;;;;;;12.94;71.36;100760.81;5045441;28;20642;-68
2023/09/23 08:37:20;;;;;;;10.57;4.78;;;;;;;12.88;72.08;100760.03;5025387;28;20389;-68
2023/09/23 08:39:52;;;;;;;10.77;3.80;;;;;;;12.77;72.68;100772.50;5030118;28;20037;-68
2023/09/23 08:42:27;;;;;;;11.30;3.60;;;;;;;12.50;73.69;100744.09;5021052;28;20283;-65
2023/09/23 08:45:00;;;;;;;9.48;2.72;;;;;;;12.62;74.34;100778.84;5033539;28;20040;-65
2023/09/23 08:47:31;;;;;;;9.30;2.53;;;;;;;12.38;74.79;100749.56;5025797;28;20522;-68
2023/09/23 08:50:06;;;;;;;10.32;2.83;;;;;;;12.46;75.57;100784.34;5033154;28;20059;-68
2023/09/23 08:52:38;;;;;;;9.38;3.22;;;;;;;12.41;75.73;100785.31;5024219;28;20049;-67
2023/09/23 08:55:12;;;;;;;11.13;4.50;;;;;;;12.26;75.85;100787.28;5024080;28;20048;-68
2023/09/23 08:57:43;;;;;;;10.18;5.00;;;;;;;12.16;76.37;100795.31;5033230;28;20056;-66
2023/09/23 09:00:17;;;;;;;8.10;4.05;;;;;;;11.91;76.37;100790.41;5023928;28;20136;-62
2023/09/23 09:02:49;;;;;;;50.15;27.00;;;;;;;11.58;77.76;100808.25;5032824;28;20063;-64
2023/09/23 09:05:23;;;;;;;25.73;14.23;;;;;;;11.35;78.79;100810.22;5037954;28;20168;-68
2023/09/23 09:07:55;;;;;;;20.20;10.43;;;;;;;11.16;79.74;100820.91;5056680;28;20514;-68
2023/09/23 09:10:27;;;;;;;13.23;3.80;;;;;;;11.04;80.66;100828.88;5066800;28;20044;-68
2023/09/23 09:12:58;;;;;;;10.20;2.72;;;;;;;10.92;81.87;100842.03;5077137;28;20045;-68
2023/09/23 09:15:30;;;;;;;14.35;6.40;;;;;;;10.78;82.98;100835.19;5057636;28;20041;-66
2023/09/23 09:18:02;;;;;;;13.70;5.63;;;;;;;10.66;84.12;100844.84;5032836;28;20138;-68
2023/09/23 09:20:36;;;;;;;7.82;2.13;;;;;;;10.48;85.51;100845.84;5046494;28;20043;-68
2023/09/23 09:23:08;;;;;;;6.65;1.60;;;;;;;10.22;86.79;100844.25;5046350;28;20131;-66
2023/09/23 09:25:40;;;;;;;9.57;1.77;;;;;;;10.02;87.98;100841.72;5066573;28;20051;-69
2023/09/23 09:28:12;;;;;;;5.30;1.90;;;;;;;9.84;89.62;100845.31;5076771;28;20055;-68
2023/09/23 09:30:44;;;;;;;16.88;11.50;;;;;;;9.81;91.11;100853.16;5033379;28;20107;-63
2023/09/23 09:33:20;;;;;;;10.65;7.25;;;;;;;9.82;92.41;100859.22;5022886;28;20147;-67
2023/09/23 09:35:56;;;;;;;10.48;7.97;;;;;;;9.80;93.25;100860.97;5033866;28;20047;-67
2023/09/23 09:38:30;;;;;;;10.25;8.05;;;;;;;9.72;93.83;100863.63;5049990;28;20054;-68
2023/09/23 09:41:04;;;;;;;4.68;2.97;;;;;;;9.61;94.34;100854.94;5053602;28;20079;-69
2023/09/23 09:43:36;;;;;;;3.90;1.90;;;;;;;9.45;94.80;100862.81;5018922;28;20172;-64
2023/09/23 09:46:13;;;;;;;4.40;1.40;;;;;;;9.38;95.72;100876.72;5025707;28;20140;-68
2023/09/23 09:48:49;;;;;;;6.32;1.52;;;;;;;9.21;96.50;100881.09;5035195;28;20785;-69
2023/09/23 09:51:24;;;;;;;3.13;1.20;;;;;;;9.10;96.98;100893.28;5020034;28;20080;-68
2023/09/23 09:53:56;;;;;;;6.95;1.30;;;;;;;8.91;97.60;100898.50;5028688;28;20076;-69
2023/09/23 09:56:28;;;;;;;4.45;1.33;;;;;;;8.84;98.39;100886.34;5017058;28;20046;-69
2023/09/23 09:59:03;;;;;;;5.13;1.40;;;;;;;8.83;99.18;100895.88;5032655;28;20127;-68
2023/09/23 10:01:36;;;;;;;2.75;1.25;;;;;;;8.72;99.99;100876.75;5021376;28;20052;-66
2023/09/23 10:04:12;;;;;;;2.03;1.42;;;;;;;8.90;100.00;100907.16;5020290;28;20049;-68
2023/09/23 10:06:58;;;;;;;4.47;1.40;;;;;;;8.90;100.00;100901.97;5032692;28;20144;-68
2023/09/23 10:09:31;;;;;;;4.57;1.35;;;;;;;8.83;100.00;100884.56;5024091;28;20073;-69
2023/09/23 10:12:04;;;;;;;6.90;1.92;;;;;;;8.94;100.00;100913.28;5030387;28;20049;-67
2023/09/23 10:14:37;;;;;;;6.53;1.63;;;;;;;8.82;100.00;100920.19;5020610;28;20543;-69
2023/09/23 10:17:10;;;;;;;4.25;1.48;;;;;;;8.69;100.00;100922.78;5021292;28;20068;-68
2023/09/23 10:19:42;;;;;;;10.20;1.52;;;;;;;8.76;100.00;100925.41;5034717;28;20044;-66
2023/09/23 10:22:20;;;;;;;6.60;1.55;;;;;;;8.75;100.00;100922.78;5018813;28;20056;-66
2023/09/23 10:25:03;;;;;;;3.85;1.48;;;;;;;8.73;100.00;100929.72;5031123;28;20059;-69
2023/09/23 10:27:36;;;;;;;6.10;1.50;;;;;;;8.46;100.00;100904.50;5021351;28;20067;-67
2023/09/23 10:30:09;;;;;;;5.85;1.60;;;;;;;8.54;100.00;100940.13;5020655;28;20448;-69
2023/09/23 10:32:46;;;;;;;6.10;1.42;;;;;;;8.54;100.00;100940.13;5030697;28;20052;-68
2023/09/23 10:35:24;;;;;;;3.30;1.30;;;;;;;8.61;100.00;100947.09;5023962;28;20049;-69
2023/09/23 10:37:58;;;;;;;8.32;1.90;;;;;;;8.73;100.00;100945.38;5032060;28;20088;-67
2023/09/23 10:40:29;;;;;;;8.30;1.67;;;;;;;8.82;100.00;100945.41;5019743;28;20786;-69
2023/09/23 10:43:08;;;;;;;2.58;1.27;;;;;;;8.73;100.00;100938.41;5030701;28;20045;-67
2023/09/23 10:45:39;;;;;;;6.75;1.60;;;;;;;8.71;100.00;100947.09;5021730;28;20059;-68
2023/09/23 10:48:11;;;;;;;4.30;1.40;;;;;;;8.62;100.00;100940.13;5021653;28;20407;-68
2023/09/23 10:50:46;;;;;;;3.00;1.42;;;;;;;8.68;100.00;100952.31;5030237;28;20446;-67
2023/09/23 10:53:21;;;;;;;8.82;1.50;;;;;;;8.58;100.00;100956.63;5019512;28;20052;-66
2023/09/23 10:55:53;;;;;;;2.45;1.27;;;;;;;8.38;100.00;100954.78;5030495;28;20371;-67
2023/09/23 10:58:29;;;;;;;3.83;1.30;;;;;;;8.35;100.00;100956.50;5020067;28;20062;-67
2023/09/23 11:01:03;;;;;;;2.65;1.30;;;;;;;8.28;100.00;100967.75;5029808;28;20450;-64
2023/09/23 11:03:40;;;;;;;5.10;1.40;;;;;;;8.26;100.00;100964.28;5019619;28;20129;-68
2023/09/23 11:06:25;;;;;;;9.90;6.00;;;;;;;8.38;100.00;100970.41;5021604;28;20052;-67
2023/09/23 11:09:03;;;;;;;5.45;1.30;;;;;;;8.38;100.00;100959.13;5028379;28;20052;-68
2023/09/23 11:11:36;;;;;;;4.75;1.48;;;;;;;8.28;100.00;100973.84;5019092;28;20052;-67
2023/09/23 11:14:14;;;;;;;4.15;1.38;;;;;;;8.21;100.00;100972.97;5021037;28;20127;-66
2023/09/23 11:16:48;;;;;;;3.85;1.40;;;;;;;8.32;100.00;100970.38;5031993;28;20056;-68
2023/09/23 11:19:21;;;;;;;1.73;1.35;;;;;;;8.32;100.00;100969.53;5019358;28;20534;-67
2023/09/23 11:21:53;;;;;;;3.78;1.80;;;;;;;8.31;100.00;100983.38;5028264;28;20052;-68
2023/09/23 11:24:26;;;;;;;3.47;1.55;;;;;;;8.33;100.00;100976.47;5022365;28;20059;-68
2023/09/23 11:26:57;;;;;;;2.38;1.40;;;;;;;8.34;100.00;100983.44;5029721;28;20082;-67
2023/09/23 11:29:29;;;;;;;5.28;3.05;;;;;;;8.39;100.00;100987.81;5018954;28;20163;-68
2023/09/23 11:32:00;;;;;;;5.65;2.25;;;;;;;8.37;100.00;100996.47;5030255;28;20044;-67
2023/09/23 11:34:32;;;;;;;6.05;1.67;;;;;;;8.28;100.00;100983.38;5020341;28;20159;-64
2023/09/23 11:37:04;;;;;;;5.40;1.90;;;;;;;8.23;100.00;100985.97;5029251;28;20052;-66
2023/09/23 11:39:37;;;;;;;5.47;2.63;;;;;;;8.18;100.00;100985.94;5018745;28;20044;-64
2023/09/23 11:42:09;;;;;;;5.15;1.67;;;;;;;8.16;100.00;100995.50;5019183;28;20041;-65
2023/09/23 11:44:40;;;;;;;8.32;1.65;;;;;;;8.08;100.00;100991.09;5033365;28;20049;-65
2023/09/23 11:47:13;;;;;;;2.67;1.73;;;;;;;7.99;100.00;100998.00;5018717;28;20048;-65
2023/09/23 11:49:45;;;;;;;6.55;2.10;;;;;;;7.93;100.00;100999.69;5028689;28;20057;-66
2023/09/23 11:52:16;;;;;;;6.30;1.75;;;;;;;7.86;100.00;101005.69;5020333;28;20095;-67
2023/09/23 11:54:50;;;;;;;6.75;2.67;;;;;;;7.63;100.00;100988.22;5031221;28;20044;-67